sensor_id;sensor_type;location;lat;lon;timestamp;P1;durP1;ratioP1;P2;durP2;ratioP2
65706;SDS011;52423;43.512;5.220;2022-10-16T00:01:39;3.92;;;2.90;;
65706;SDS011;52423;43.512;5.220;2022-10-16T00:04:04;4.13;;;3.40;;
65706;SDS011;52423;43.512;5.220;2022-10-16T00:06:30;8.32;;;3.20;;
65706;SDS011;52423;43.512;5.220;2022-10-16T00:08:56;5.40;;;3.53;;
65706;SDS011;52423;43.512;5.220;2022-10-16T00:11:23;9.77;;;3.58;;
65706;SDS011;52423;43.512;5.220;2022-10-16T00:13:51;6.85;;;3.08;;
65706;SDS011;52423;43.512;5.220;2022-10-16T00:16:19;7.88;;;3.28;;
65706;SDS011;52423;43.512;5.220;2022-10-16T00:18:44;4.88;;;3.08;;
65706;SDS011;52423;43.512;5.220;2022-10-16T00:21:11;6.10;;;3.20;;
65706;SDS011;52423;43.512;5.220;2022-10-16T00:23:38;5.05;;;2.97;;
65706;SDS011;52423;43.512;5.220;2022-10-16T00:26:05;3.83;;;3.20;;
65706;SDS011;52423;43.512;5.220;2022-10-16T00:28:32;3.63;;;3.10;;
65706;SDS011;52423;43.512;5.220;2022-10-16T00:30:58;3.67;;;3.08;;
65706;SDS011;52423;43.512;5.220;2022-10-16T00:33:23;4.75;;;3.22;;
65706;SDS011;52423;43.512;5.220;2022-10-16T00:35:49;11.35;;;4.13;;
65706;SDS011;52423;43.512;5.220;2022-10-16T00:38:15;4.35;;;2.88;;
65706;SDS011;52423;43.512;5.220;2022-10-16T00:40:40;9.13;;;3.72;;
65706;SDS011;52423;43.512;5.220;2022-10-16T00:43:49;4.97;;;3.35;;
65706;SDS011;52423;43.512;5.220;2022-10-16T00:46:00;5.43;;;3.13;;
65706;SDS011;52423;43.512;5.220;2022-10-16T00:48:26;3.83;;;3.20;;
65706;SDS011;52423;43.512;5.220;2022-10-16T00:50:52;3.30;;;3.00;;
65706;SDS011;52423;43.512;5.220;2022-10-16T00:53:18;5.55;;;3.40;;
65706;SDS011;52423;43.512;5.220;2022-10-16T00:55:44;5.55;;;3.97;;
65706;SDS011;52423;43.512;5.220;2022-10-16T00:58:10;5.07;;;3.53;;
65706;SDS011;52423;43.512;5.220;2022-10-16T01:00:37;3.58;;;3.28;;
65706;SDS011;52423;43.512;5.220;2022-10-16T01:03:03;3.65;;;3.30;;
65706;SDS011;52423;43.512;5.220;2022-10-16T01:05:49;4.30;;;3.58;;
65706;SDS011;52423;43.512;5.220;2022-10-16T01:08:22;4.75;;;3.28;;
65706;SDS011;52423;43.512;5.220;2022-10-16T01:11:05;3.83;;;3.42;;
65706;SDS011;52423;43.512;5.220;2022-10-16T01:13:46;9.40;;;3.38;;
65706;SDS011;52423;43.512;5.220;2022-10-16T01:16:20;3.45;;;3.20;;
65706;SDS011;52423;43.512;5.220;2022-10-16T01:19:35;8.05;;;3.70;;
65706;SDS011;52423;43.512;5.220;2022-10-16T01:22:10;5.25;;;3.45;;
65706;SDS011;52423;43.512;5.220;2022-10-16T01:24:39;6.65;;;3.40;;
65706;SDS011;52423;43.512;5.220;2022-10-16T01:27:09;5.63;;;3.22;;
65706;SDS011;52423;43.512;5.220;2022-10-16T01:29:52;3.60;;;3.30;;
65706;SDS011;52423;43.512;5.220;2022-10-16T01:32:36;3.38;;;3.08;;
65706;SDS011;52423;43.512;5.220;2022-10-16T01:37:44;6.55;;;2.95;;
65706;SDS011;52423;43.512;5.220;2022-10-16T01:40:14;4.57;;;3.08;;
65706;SDS011;52423;43.512;5.220;2022-10-16T01:42:44;4.40;;;2.92;;
65706;SDS011;52423;43.512;5.220;2022-10-16T01:45:13;5.72;;;2.75;;
65706;SDS011;52423;43.512;5.220;2022-10-16T01:47:43;5.20;;;3.17;;
65706;SDS011;52423;43.512;5.220;2022-10-16T01:50:10;6.07;;;3.10;;
65706;SDS011;52423;43.512;5.220;2022-10-16T01:52:40;5.55;;;3.28;;
65706;SDS011;52423;43.512;5.220;2022-10-16T01:55:09;6.68;;;2.80;;
65706;SDS011;52423;43.512;5.220;2022-10-16T01:57:38;5.80;;;3.30;;
65706;SDS011;52423;43.512;5.220;2022-10-16T02:00:09;4.97;;;3.22;;
65706;SDS011;52423;43.512;5.220;2022-10-16T02:02:36;3.92;;;3.28;;
65706;SDS011;52423;43.512;5.220;2022-10-16T02:05:08;3.10;;;2.80;;
65706;SDS011;52423;43.512;5.220;2022-10-16T02:07:39;6.55;;;3.00;;
65706;SDS011;52423;43.512;5.220;2022-10-16T02:10:07;4.80;;;3.20;;
65706;SDS011;52423;43.512;5.220;2022-10-16T02:12:33;12.05;;;3.38;;
65706;SDS011;52423;43.512;5.220;2022-10-16T02:15:04;7.38;;;4.20;;
65706;SDS011;52423;43.512;5.220;2022-10-16T02:17:30;5.55;;;3.42;;
65706;SDS011;52423;43.512;5.220;2022-10-16T02:19:56;5.32;;;3.10;;
65706;SDS011;52423;43.512;5.220;2022-10-16T02:22:45;3.03;;;2.83;;
65706;SDS011;52423;43.512;5.220;2022-10-16T02:25:22;3.65;;;3.08;;
65706;SDS011;52423;43.512;5.220;2022-10-16T02:33:24;4.38;;;3.38;;
65706;SDS011;52423;43.512;5.220;2022-10-16T02:35:52;6.65;;;3.55;;
65706;SDS011;52423;43.512;5.220;2022-10-16T02:38:19;4.18;;;3.05;;
65706;SDS011;52423;43.512;5.220;2022-10-16T02:40:46;3.30;;;3.00;;
65706;SDS011;52423;43.512;5.220;2022-10-16T02:43:11;6.05;;;3.03;;
65706;SDS011;52423;43.512;5.220;2022-10-16T02:45:38;3.40;;;3.10;;
65706;SDS011;52423;43.512;5.220;2022-10-16T02:48:03;5.30;;;3.28;;
65706;SDS011;52423;43.512;5.220;2022-10-16T02:50:29;7.22;;;3.10;;
65706;SDS011;52423;43.512;5.220;2022-10-16T02:52:54;5.70;;;2.95;;
65706;SDS011;52423;43.512;5.220;2022-10-16T02:55:20;3.42;;;3.13;;
65706;SDS011;52423;43.512;5.220;2022-10-16T02:57:45;3.33;;;3.10;;
65706;SDS011;52423;43.512;5.220;2022-10-16T03:00:12;8.65;;;3.13;;
65706;SDS011;52423;43.512;5.220;2022-10-16T03:02:38;3.42;;;3.03;;
65706;SDS011;52423;43.512;5.220;2022-10-16T03:05:04;2.90;;;2.63;;
65706;SDS011;52423;43.512;5.220;2022-10-16T03:07:30;3.30;;;3.00;;
65706;SDS011;52423;43.512;5.220;2022-10-16T03:09:55;4.45;;;3.20;;
65706;SDS011;52423;43.512;5.220;2022-10-16T03:12:21;4.72;;;3.55;;
65706;SDS011;52423;43.512;5.220;2022-10-16T03:14:46;3.60;;;3.00;;
65706;SDS011;52423;43.512;5.220;2022-10-16T03:17:12;5.20;;;3.25;;
65706;SDS011;52423;43.512;5.220;2022-10-16T03:19:38;5.45;;;3.40;;
65706;SDS011;52423;43.512;5.220;2022-10-16T03:22:03;7.75;;;3.15;;
65706;SDS011;52423;43.512;5.220;2022-10-16T03:24:29;4.38;;;3.50;;
65706;SDS011;52423;43.512;5.220;2022-10-16T03:26:54;3.38;;;2.97;;
65706;SDS011;52423;43.512;5.220;2022-10-16T03:29:20;6.68;;;3.30;;
65706;SDS011;52423;43.512;5.220;2022-10-16T03:31:45;3.97;;;2.90;;
65706;SDS011;52423;43.512;5.220;2022-10-16T03:34:10;4.80;;;3.10;;
65706;SDS011;52423;43.512;5.220;2022-10-16T03:36:36;3.42;;;2.75;;
65706;SDS011;52423;43.512;5.220;2022-10-16T03:39:02;3.97;;;3.50;;
65706;SDS011;52423;43.512;5.220;2022-10-16T03:41:27;2.92;;;2.72;;
65706;SDS011;52423;43.512;5.220;2022-10-16T03:43:53;5.55;;;3.33;;
65706;SDS011;52423;43.512;5.220;2022-10-16T03:46:18;12.48;;;3.20;;
65706;SDS011;52423;43.512;5.220;2022-10-16T03:48:43;12.40;;;2.80;;
65706;SDS011;52423;43.512;5.220;2022-10-16T03:51:09;5.00;;;3.35;;
65706;SDS011;52423;43.512;5.220;2022-10-16T03:53:34;5.22;;;3.50;;
65706;SDS011;52423;43.512;5.220;2022-10-16T03:55:59;5.38;;;3.10;;
65706;SDS011;52423;43.512;5.220;2022-10-16T03:58:25;6.60;;;3.20;;
65706;SDS011;52423;43.512;5.220;2022-10-16T04:00:50;5.20;;;3.55;;
65706;SDS011;52423;43.512;5.220;2022-10-16T04:03:16;7.20;;;3.30;;
65706;SDS011;52423;43.512;5.220;2022-10-16T04:05:42;3.40;;;3.10;;
65706;SDS011;52423;43.512;5.220;2022-10-16T04:08:07;5.45;;;3.15;;
65706;SDS011;52423;43.512;5.220;2022-10-16T04:10:33;3.28;;;2.97;;
65706;SDS011;52423;43.512;5.220;2022-10-16T04:12:58;4.65;;;3.45;;
65706;SDS011;52423;43.512;5.220;2022-10-16T04:15:24;5.68;;;3.55;;
65706;SDS011;52423;43.512;5.220;2022-10-16T04:17:50;5.50;;;3.83;;
65706;SDS011;52423;43.512;5.220;2022-10-16T04:20:16;4.85;;;3.38;;
65706;SDS011;52423;43.512;5.220;2022-10-16T04:22:42;5.03;;;3.55;;
65706;SDS011;52423;43.512;5.220;2022-10-16T04:25:08;4.18;;;3.50;;
65706;SDS011;52423;43.512;5.220;2022-10-16T04:27:34;5.90;;;3.60;;
65706;SDS011;52423;43.512;5.220;2022-10-16T04:29:59;3.90;;;3.20;;
65706;SDS011;52423;43.512;5.220;2022-10-16T04:32:25;6.43;;;4.00;;
65706;SDS011;52423;43.512;5.220;2022-10-16T04:34:51;3.50;;;3.08;;
65706;SDS011;52423;43.512;5.220;2022-10-16T04:37:16;4.05;;;3.17;;
65706;SDS011;52423;43.512;5.220;2022-10-16T04:39:41;4.38;;;3.60;;
65706;SDS011;52423;43.512;5.220;2022-10-16T04:42:07;5.75;;;3.30;;
65706;SDS011;52423;43.512;5.220;2022-10-16T04:44:32;3.47;;;3.17;;
65706;SDS011;52423;43.512;5.220;2022-10-16T04:46:58;3.92;;;3.15;;
65706;SDS011;52423;43.512;5.220;2022-10-16T04:49:23;6.20;;;3.53;;
65706;SDS011;52423;43.512;5.220;2022-10-16T04:51:48;4.30;;;3.25;;
65706;SDS011;52423;43.512;5.220;2022-10-16T04:54:14;5.55;;;3.50;;
65706;SDS011;52423;43.512;5.220;2022-10-16T04:56:39;3.92;;;3.55;;
65706;SDS011;52423;43.512;5.220;2022-10-16T04:59:11;4.43;;;3.72;;
65706;SDS011;52423;43.512;5.220;2022-10-16T05:01:38;6.88;;;3.30;;
65706;SDS011;52423;43.512;5.220;2022-10-16T05:04:03;4.18;;;3.30;;
65706;SDS011;52423;43.512;5.220;2022-10-16T05:06:29;6.30;;;3.85;;
65706;SDS011;52423;43.512;5.220;2022-10-16T05:08:54;6.28;;;3.50;;
65706;SDS011;52423;43.512;5.220;2022-10-16T05:11:20;3.75;;;3.28;;
65706;SDS011;52423;43.512;5.220;2022-10-16T05:13:45;6.05;;;3.50;;
65706;SDS011;52423;43.512;5.220;2022-10-16T05:16:10;4.65;;;3.38;;
65706;SDS011;52423;43.512;5.220;2022-10-16T05:18:36;4.43;;;3.35;;
65706;SDS011;52423;43.512;5.220;2022-10-16T05:21:01;4.15;;;3.38;;
65706;SDS011;52423;43.512;5.220;2022-10-16T05:23:27;7.20;;;3.83;;
65706;SDS011;52423;43.512;5.220;2022-10-16T05:25:56;3.88;;;3.50;;
65706;SDS011;52423;43.512;5.220;2022-10-16T05:28:23;7.13;;;3.83;;
65706;SDS011;52423;43.512;5.220;2022-10-16T05:30:49;6.47;;;3.58;;
65706;SDS011;52423;43.512;5.220;2022-10-16T05:33:15;10.15;;;3.97;;
65706;SDS011;52423;43.512;5.220;2022-10-16T05:35:41;3.83;;;3.47;;
65706;SDS011;52423;43.512;5.220;2022-10-16T05:38:06;4.43;;;3.58;;
65706;SDS011;52423;43.512;5.220;2022-10-16T05:40:32;6.15;;;3.60;;
65706;SDS011;52423;43.512;5.220;2022-10-16T05:42:57;3.58;;;3.28;;
65706;SDS011;52423;43.512;5.220;2022-10-16T05:45:22;5.07;;;3.40;;
65706;SDS011;52423;43.512;5.220;2022-10-16T05:47:48;3.60;;;3.15;;
65706;SDS011;52423;43.512;5.220;2022-10-16T05:50:13;5.15;;;3.55;;
65706;SDS011;52423;43.512;5.220;2022-10-16T05:52:39;4.00;;;3.38;;
65706;SDS011;52423;43.512;5.220;2022-10-16T05:55:05;4.28;;;3.22;;
65706;SDS011;52423;43.512;5.220;2022-10-16T05:57:30;4.25;;;3.63;;
65706;SDS011;52423;43.512;5.220;2022-10-16T05:59:56;5.65;;;3.15;;
65706;SDS011;52423;43.512;5.220;2022-10-16T06:02:21;3.28;;;2.97;;
65706;SDS011;52423;43.512;5.220;2022-10-16T06:04:46;4.53;;;3.42;;
65706;SDS011;52423;43.512;5.220;2022-10-16T06:07:12;4.43;;;3.13;;
65706;SDS011;52423;43.512;5.220;2022-10-16T06:09:37;5.47;;;3.25;;
65706;SDS011;52423;43.512;5.220;2022-10-16T06:12:02;4.63;;;3.00;;
65706;SDS011;52423;43.512;5.220;2022-10-16T06:14:28;3.72;;;3.30;;
65706;SDS011;52423;43.512;5.220;2022-10-16T06:16:53;3.28;;;2.97;;
65706;SDS011;52423;43.512;5.220;2022-10-16T06:19:19;3.92;;;3.15;;
65706;SDS011;52423;43.512;5.220;2022-10-16T06:21:44;5.22;;;3.45;;
65706;SDS011;52423;43.512;5.220;2022-10-16T06:24:10;6.20;;;3.30;;
65706;SDS011;52423;43.512;5.220;2022-10-16T06:26:35;4.18;;;3.42;;
65706;SDS011;52423;43.512;5.220;2022-10-16T06:29:01;7.50;;;3.30;;
65706;SDS011;52423;43.512;5.220;2022-10-16T06:31:27;6.78;;;3.70;;
65706;SDS011;52423;43.512;5.220;2022-10-16T06:33:55;7.53;;;3.25;;
65706;SDS011;52423;43.512;5.220;2022-10-16T06:36:21;5.78;;;3.72;;
65706;SDS011;52423;43.512;5.220;2022-10-16T06:38:47;6.03;;;3.38;;
65706;SDS011;52423;43.512;5.220;2022-10-16T06:41:14;4.38;;;3.25;;
65706;SDS011;52423;43.512;5.220;2022-10-16T06:43:41;4.88;;;3.55;;
65706;SDS011;52423;43.512;5.220;2022-10-16T06:46:07;6.05;;;3.40;;
65706;SDS011;52423;43.512;5.220;2022-10-16T06:48:35;4.15;;;3.42;;
65706;SDS011;52423;43.512;5.220;2022-10-16T06:51:05;11.07;;;3.45;;
65706;SDS011;52423;43.512;5.220;2022-10-16T06:53:34;7.13;;;3.28;;
65706;SDS011;52423;43.512;5.220;2022-10-16T06:56:07;4.18;;;3.20;;
65706;SDS011;52423;43.512;5.220;2022-10-16T06:58:34;5.53;;;3.25;;
65706;SDS011;52423;43.512;5.220;2022-10-16T07:00:59;6.13;;;3.55;;
65706;SDS011;52423;43.512;5.220;2022-10-16T07:03:25;7.18;;;3.25;;
65706;SDS011;52423;43.512;5.220;2022-10-16T07:05:50;5.00;;;3.28;;
65706;SDS011;52423;43.512;5.220;2022-10-16T07:08:15;6.60;;;3.30;;
65706;SDS011;52423;43.512;5.220;2022-10-16T07:10:41;4.30;;;3.40;;
65706;SDS011;52423;43.512;5.220;2022-10-16T07:13:06;6.32;;;4.00;;
65706;SDS011;52423;43.512;5.220;2022-10-16T07:15:32;6.30;;;3.40;;
65706;SDS011;52423;43.512;5.220;2022-10-16T07:17:58;4.97;;;3.90;;
65706;SDS011;52423;43.512;5.220;2022-10-16T07:20:24;12.55;;;3.85;;
65706;SDS011;52423;43.512;5.220;2022-10-16T07:22:49;6.00;;;3.55;;
65706;SDS011;52423;43.512;5.220;2022-10-16T07:25:15;4.43;;;3.53;;
65706;SDS011;52423;43.512;5.220;2022-10-16T07:27:40;6.35;;;3.70;;
65706;SDS011;52423;43.512;5.220;2022-10-16T07:30:06;5.68;;;3.28;;
65706;SDS011;52423;43.512;5.220;2022-10-16T07:32:32;4.57;;;3.05;;
65706;SDS011;52423;43.512;5.220;2022-10-16T07:34:57;5.57;;;3.50;;
65706;SDS011;52423;43.512;5.220;2022-10-16T07:37:22;5.80;;;3.38;;
65706;SDS011;52423;43.512;5.220;2022-10-16T07:39:48;5.45;;;4.05;;
65706;SDS011;52423;43.512;5.220;2022-10-16T07:42:13;4.43;;;3.40;;
65706;SDS011;52423;43.512;5.220;2022-10-16T07:44:39;4.80;;;3.97;;
65706;SDS011;52423;43.512;5.220;2022-10-16T07:47:05;4.93;;;3.40;;
65706;SDS011;52423;43.512;5.220;2022-10-16T07:49:30;6.32;;;3.38;;
65706;SDS011;52423;43.512;5.220;2022-10-16T07:51:56;6.28;;;3.72;;
65706;SDS011;52423;43.512;5.220;2022-10-16T07:54:21;10.48;;;3.55;;
65706;SDS011;52423;43.512;5.220;2022-10-16T07:56:46;6.00;;;3.67;;
65706;SDS011;52423;43.512;5.220;2022-10-16T07:59:12;4.28;;;3.47;;
65706;SDS011;52423;43.512;5.220;2022-10-16T08:01:37;5.55;;;3.45;;
65706;SDS011;52423;43.512;5.220;2022-10-16T08:04:03;5.22;;;3.65;;
65706;SDS011;52423;43.512;5.220;2022-10-16T08:06:28;7.97;;;3.75;;
65706;SDS011;52423;43.512;5.220;2022-10-16T08:08:54;3.97;;;3.58;;
65706;SDS011;52423;43.512;5.220;2022-10-16T08:11:20;4.43;;;3.40;;
65706;SDS011;52423;43.512;5.220;2022-10-16T08:13:46;8.82;;;3.50;;
65706;SDS011;52423;43.512;5.220;2022-10-16T08:16:11;5.32;;;3.67;;
65706;SDS011;52423;43.512;5.220;2022-10-16T08:18:37;8.32;;;3.70;;
65706;SDS011;52423;43.512;5.220;2022-10-16T08:21:04;6.93;;;3.45;;
65706;SDS011;52423;43.512;5.220;2022-10-16T08:23:36;7.25;;;4.18;;
65706;SDS011;52423;43.512;5.220;2022-10-16T08:26:03;12.52;;;4.00;;
65706;SDS011;52423;43.512;5.220;2022-10-16T08:28:30;4.75;;;3.75;;
65706;SDS011;52423;43.512;5.220;2022-10-16T08:30:56;8.10;;;3.78;;
65706;SDS011;52423;43.512;5.220;2022-10-16T08:33:24;6.25;;;3.33;;
65706;SDS011;52423;43.512;5.220;2022-10-16T08:35:53;5.03;;;3.40;;
65706;SDS011;52423;43.512;5.220;2022-10-16T08:38:19;6.13;;;3.30;;
65706;SDS011;52423;43.512;5.220;2022-10-16T08:40:45;5.90;;;3.25;;
65706;SDS011;52423;43.512;5.220;2022-10-16T08:48:32;4.60;;;3.03;;
65706;SDS011;52423;43.512;5.220;2022-10-16T08:51:18;10.52;;;4.15;;
65706;SDS011;52423;43.512;5.220;2022-10-16T08:56:22;4.53;;;3.17;;
65706;SDS011;52423;43.512;5.220;2022-10-16T08:58:49;3.47;;;2.83;;
65706;SDS011;52423;43.512;5.220;2022-10-16T09:01:16;7.10;;;3.33;;
65706;SDS011;52423;43.512;5.220;2022-10-16T09:06:35;4.72;;;3.55;;
65706;SDS011;52423;43.512;5.220;2022-10-16T09:11:48;9.40;;;3.40;;
65706;SDS011;52423;43.512;5.220;2022-10-16T09:17:28;4.07;;;3.15;;
65706;SDS011;52423;43.512;5.220;2022-10-16T09:22:43;5.25;;;3.28;;
65706;SDS011;52423;43.512;5.220;2022-10-16T09:25:13;5.53;;;2.78;;
65706;SDS011;52423;43.512;5.220;2022-10-16T09:30:11;5.15;;;3.20;;
65706;SDS011;52423;43.512;5.220;2022-10-16T09:32:38;4.32;;;3.22;;
65706;SDS011;52423;43.512;5.220;2022-10-16T09:35:09;8.13;;;4.00;;
65706;SDS011;52423;43.512;5.220;2022-10-16T09:37:38;7.20;;;3.30;;
65706;SDS011;52423;43.512;5.220;2022-10-16T09:40:04;6.68;;;2.92;;
65706;SDS011;52423;43.512;5.220;2022-10-16T09:42:34;4.90;;;3.05;;
65706;SDS011;52423;43.512;5.220;2022-10-16T09:47:28;5.70;;;3.33;;
65706;SDS011;52423;43.512;5.220;2022-10-16T09:49:57;9.65;;;3.28;;
65706;SDS011;52423;43.512;5.220;2022-10-16T09:52:24;5.10;;;2.95;;
65706;SDS011;52423;43.512;5.220;2022-10-16T09:54:51;3.80;;;3.25;;
65706;SDS011;52423;43.512;5.220;2022-10-16T09:57:21;7.00;;;3.03;;
65706;SDS011;52423;43.512;5.220;2022-10-16T10:02:14;5.80;;;3.00;;
65706;SDS011;52423;43.512;5.220;2022-10-16T10:04:43;7.78;;;3.10;;
65706;SDS011;52423;43.512;5.220;2022-10-16T10:07:16;6.40;;;3.53;;
65706;SDS011;52423;43.512;5.220;2022-10-16T10:09:48;4.97;;;3.58;;
65706;SDS011;52423;43.512;5.220;2022-10-16T10:12:17;3.55;;;3.13;;
65706;SDS011;52423;43.512;5.220;2022-10-16T10:14:48;7.05;;;3.30;;
65706;SDS011;52423;43.512;5.220;2022-10-16T10:17:16;4.47;;;2.90;;
65706;SDS011;52423;43.512;5.220;2022-10-16T10:19:57;9.98;;;3.38;;
65706;SDS011;52423;43.512;5.220;2022-10-16T10:39:04;4.75;;;3.03;;
65706;SDS011;52423;43.512;5.220;2022-10-16T10:47:48;7.63;;;2.90;;
65706;SDS011;52423;43.512;5.220;2022-10-16T10:53:24;4.53;;;2.28;;
65706;SDS011;52423;43.512;5.220;2022-10-16T10:59:16;4.00;;;2.88;;
65706;SDS011;52423;43.512;5.220;2022-10-16T11:07:07;7.40;;;2.35;;
65706;SDS011;52423;43.512;5.220;2022-10-16T11:09:41;4.40;;;2.30;;
65706;SDS011;52423;43.512;5.220;2022-10-16T11:12:12;8.45;;;2.33;;
65706;SDS011;52423;43.512;5.220;2022-10-16T11:15:30;3.20;;;2.40;;
65706;SDS011;52423;43.512;5.220;2022-10-16T11:17:38;3.80;;;2.42;;
65706;SDS011;52423;43.512;5.220;2022-10-16T11:25:11;3.58;;;2.28;;
65706;SDS011;52423;43.512;5.220;2022-10-16T11:27:49;6.78;;;2.40;;
65706;SDS011;52423;43.512;5.220;2022-10-16T11:30:24;9.68;;;2.78;;
65706;SDS011;52423;43.512;5.220;2022-10-16T11:38:21;5.63;;;2.38;;
65706;SDS011;52423;43.512;5.220;2022-10-16T11:40:58;5.95;;;2.90;;
65706;SDS011;52423;43.512;5.220;2022-10-16T11:43:41;2.63;;;2.20;;
65706;SDS011;52423;43.512;5.220;2022-10-16T11:46:17;2.75;;;2.20;;
65706;SDS011;52423;43.512;5.220;2022-10-16T11:51:38;3.97;;;2.90;;
65706;SDS011;52423;43.512;5.220;2022-10-16T11:56:36;2.30;;;1.80;;
65706;SDS011;52423;43.512;5.220;2022-10-16T12:01:55;3.40;;;2.38;;
65706;SDS011;52423;43.512;5.220;2022-10-16T12:04:38;4.85;;;2.38;;
65706;SDS011;52423;43.512;5.220;2022-10-16T12:07:18;3.35;;;2.03;;
65706;SDS011;52423;43.512;5.220;2022-10-16T12:09:49;3.95;;;2.30;;
65706;SDS011;52423;43.512;5.220;2022-10-16T12:12:28;3.10;;;1.98;;
65706;SDS011;52423;43.512;5.220;2022-10-16T12:15:18;4.25;;;1.90;;
65706;SDS011;52423;43.512;5.220;2022-10-16T12:17:55;4.85;;;1.95;;
65706;SDS011;52423;43.512;5.220;2022-10-16T12:20:22;3.55;;;1.92;;
65706;SDS011;52423;43.512;5.220;2022-10-16T12:25:35;4.60;;;2.20;;
65706;SDS011;52423;43.512;5.220;2022-10-16T12:28:17;5.90;;;2.30;;
65706;SDS011;52423;43.512;5.220;2022-10-16T12:30:55;18.70;;;2.60;;
65706;SDS011;52423;43.512;5.220;2022-10-16T12:33:30;2.95;;;1.90;;
65706;SDS011;52423;43.512;5.220;2022-10-16T12:35:59;4.15;;;2.10;;
65706;SDS011;52423;43.512;5.220;2022-10-16T12:38:32;5.88;;;2.20;;
65706;SDS011;52423;43.512;5.220;2022-10-16T12:41:04;6.07;;;2.20;;
65706;SDS011;52423;43.512;5.220;2022-10-16T12:48:36;5.93;;;2.47;;
65706;SDS011;52423;43.512;5.220;2022-10-16T12:53:57;2.10;;;1.52;;
65706;SDS011;52423;43.512;5.220;2022-10-16T12:56:50;14.50;;;2.35;;
65706;SDS011;52423;43.512;5.220;2022-10-16T13:07:42;4.30;;;2.28;;
65706;SDS011;52423;43.512;5.220;2022-10-16T13:15:19;3.95;;;1.95;;
65706;SDS011;52423;43.512;5.220;2022-10-16T13:17:55;4.97;;;2.08;;
65706;SDS011;52423;43.512;5.220;2022-10-16T13:23:14;7.72;;;2.28;;
65706;SDS011;52423;43.512;5.220;2022-10-16T13:26:01;6.43;;;2.00;;
65706;SDS011;52423;43.512;5.220;2022-10-16T13:28:47;4.63;;;2.13;;
65706;SDS011;52423;43.512;5.220;2022-10-16T13:31:22;4.63;;;2.40;;
65706;SDS011;52423;43.512;5.220;2022-10-16T13:33:50;5.88;;;2.15;;
65706;SDS011;52423;43.512;5.220;2022-10-16T13:36:23;3.22;;;1.95;;
65706;SDS011;52423;43.512;5.220;2022-10-16T13:41:58;5.78;;;2.10;;
65706;SDS011;52423;43.512;5.220;2022-10-16T13:44:48;3.38;;;2.00;;
65706;SDS011;52423;43.512;5.220;2022-10-16T13:47:23;5.15;;;2.38;;
65706;SDS011;52423;43.512;5.220;2022-10-16T13:52:44;4.97;;;2.50;;
65706;SDS011;52423;43.512;5.220;2022-10-16T13:55:18;2.88;;;1.95;;
65706;SDS011;52423;43.512;5.220;2022-10-16T13:57:44;5.70;;;2.65;;
65706;SDS011;52423;43.512;5.220;2022-10-16T14:00:17;2.90;;;2.08;;
65706;SDS011;52423;43.512;5.220;2022-10-16T14:02:50;7.00;;;2.13;;
65706;SDS011;52423;43.512;5.220;2022-10-16T14:05:20;3.92;;;1.90;;
65706;SDS011;52423;43.512;5.220;2022-10-16T14:07:47;4.85;;;2.35;;
65706;SDS011;52423;43.512;5.220;2022-10-16T14:10:26;7.05;;;1.85;;
65706;SDS011;52423;43.512;5.220;2022-10-16T14:12:55;4.20;;;2.00;;
65706;SDS011;52423;43.512;5.220;2022-10-16T14:15:22;5.47;;;2.17;;
65706;SDS011;52423;43.512;5.220;2022-10-16T14:17:49;5.80;;;2.00;;
65706;SDS011;52423;43.512;5.220;2022-10-16T14:20:16;5.57;;;2.17;;
65706;SDS011;52423;43.512;5.220;2022-10-16T14:22:43;5.55;;;2.17;;
65706;SDS011;52423;43.512;5.220;2022-10-16T14:27:56;3.85;;;2.10;;
65706;SDS011;52423;43.512;5.220;2022-10-16T14:30:27;4.45;;;2.30;;
65706;SDS011;52423;43.512;5.220;2022-10-16T14:32:55;12.30;;;2.05;;
65706;SDS011;52423;43.512;5.220;2022-10-16T14:35:24;5.15;;;2.08;;
65706;SDS011;52423;43.512;5.220;2022-10-16T14:37:52;5.50;;;2.20;;
65706;SDS011;52423;43.512;5.220;2022-10-16T14:40:25;7.00;;;2.40;;
65706;SDS011;52423;43.512;5.220;2022-10-16T14:43:02;10.93;;;2.17;;
65706;SDS011;52423;43.512;5.220;2022-10-16T14:45:29;4.80;;;1.90;;
65706;SDS011;52423;43.512;5.220;2022-10-16T14:48:14;5.97;;;1.80;;
65706;SDS011;52423;43.512;5.220;2022-10-16T14:50:42;3.50;;;2.05;;
65706;SDS011;52423;43.512;5.220;2022-10-16T14:53:10;4.60;;;2.05;;
65706;SDS011;52423;43.512;5.220;2022-10-16T14:55:37;7.47;;;2.20;;
65706;SDS011;52423;43.512;5.220;2022-10-16T14:58:03;2.95;;;1.90;;
65706;SDS011;52423;43.512;5.220;2022-10-16T15:00:28;7.15;;;2.00;;
65706;SDS011;52423;43.512;5.220;2022-10-16T15:02:53;5.35;;;2.13;;
65706;SDS011;52423;43.512;5.220;2022-10-16T15:05:20;3.35;;;1.90;;
65706;SDS011;52423;43.512;5.220;2022-10-16T15:10:18;5.15;;;1.88;;
65706;SDS011;52423;43.512;5.220;2022-10-16T15:12:44;4.40;;;2.00;;
65706;SDS011;52423;43.512;5.220;2022-10-16T15:15:15;5.30;;;1.70;;
65706;SDS011;52423;43.512;5.220;2022-10-16T15:17:49;4.45;;;1.90;;
65706;SDS011;52423;43.512;5.220;2022-10-16T15:20:17;6.10;;;2.20;;
65706;SDS011;52423;43.512;5.220;2022-10-16T15:22:43;6.22;;;2.20;;
65706;SDS011;52423;43.512;5.220;2022-10-16T15:25:12;3.28;;;2.38;;
65706;SDS011;52423;43.512;5.220;2022-10-16T15:27:56;5.95;;;2.65;;
65706;SDS011;52423;43.512;5.220;2022-10-16T15:30:21;7.65;;;2.17;;
65706;SDS011;52423;43.512;5.220;2022-10-16T15:32:47;3.47;;;1.80;;
65706;SDS011;52423;43.512;5.220;2022-10-16T15:35:12;3.20;;;2.25;;
65706;SDS011;52423;43.512;5.220;2022-10-16T15:37:37;5.40;;;2.33;;
65706;SDS011;52423;43.512;5.220;2022-10-16T15:40:03;4.32;;;2.00;;
65706;SDS011;52423;43.512;5.220;2022-10-16T15:42:29;3.75;;;2.20;;
65706;SDS011;52423;43.512;5.220;2022-10-16T15:44:54;6.13;;;2.47;;
65706;SDS011;52423;43.512;5.220;2022-10-16T15:47:19;5.68;;;2.03;;
65706;SDS011;52423;43.512;5.220;2022-10-16T15:49:45;4.20;;;2.00;;
65706;SDS011;52423;43.512;5.220;2022-10-16T15:52:10;2.83;;;1.80;;
65706;SDS011;52423;43.512;5.220;2022-10-16T15:54:36;8.95;;;2.10;;
65706;SDS011;52423;43.512;5.220;2022-10-16T15:57:01;6.43;;;2.50;;
65706;SDS011;52423;43.512;5.220;2022-10-16T15:59:27;8.32;;;2.13;;
65706;SDS011;52423;43.512;5.220;2022-10-16T16:01:52;5.60;;;2.13;;
65706;SDS011;52423;43.512;5.220;2022-10-16T16:04:18;7.45;;;2.08;;
65706;SDS011;52423;43.512;5.220;2022-10-16T16:06:43;5.18;;;3.25;;
65706;SDS011;52423;43.512;5.220;2022-10-16T16:09:12;9.30;;;3.97;;
65706;SDS011;52423;43.512;5.220;2022-10-16T16:11:39;8.82;;;3.10;;
65706;SDS011;52423;43.512;5.220;2022-10-16T16:14:06;4.72;;;2.40;;
65706;SDS011;52423;43.512;5.220;2022-10-16T16:16:32;3.10;;;2.25;;
65706;SDS011;52423;43.512;5.220;2022-10-16T16:19:03;5.85;;;2.20;;
65706;SDS011;52423;43.512;5.220;2022-10-16T16:21:32;6.45;;;2.40;;
65706;SDS011;52423;43.512;5.220;2022-10-16T16:23:58;4.78;;;2.42;;
65706;SDS011;52423;43.512;5.220;2022-10-16T16:26:25;5.45;;;2.90;;
65706;SDS011;52423;43.512;5.220;2022-10-16T16:28:52;5.90;;;2.15;;
65706;SDS011;52423;43.512;5.220;2022-10-16T16:31:19;6.18;;;2.60;;
65706;SDS011;52423;43.512;5.220;2022-10-16T16:33:45;9.45;;;2.63;;
65706;SDS011;52423;43.512;5.220;2022-10-16T16:36:11;12.80;;;2.90;;
65706;SDS011;52423;43.512;5.220;2022-10-16T16:38:36;6.28;;;2.70;;
65706;SDS011;52423;43.512;5.220;2022-10-16T16:41:15;5.05;;;2.65;;
65706;SDS011;52423;43.512;5.220;2022-10-16T16:43:40;5.53;;;2.45;;
65706;SDS011;52423;43.512;5.220;2022-10-16T16:46:06;4.82;;;2.42;;
65706;SDS011;52423;43.512;5.220;2022-10-16T16:48:32;3.47;;;2.40;;
65706;SDS011;52423;43.512;5.220;2022-10-16T16:51:31;4.32;;;2.20;;
65706;SDS011;52423;43.512;5.220;2022-10-16T16:53:50;5.68;;;2.20;;
65706;SDS011;52423;43.512;5.220;2022-10-16T16:56:17;8.52;;;2.45;;
65706;SDS011;52423;43.512;5.220;2022-10-16T16:58:53;3.63;;;2.13;;
65706;SDS011;52423;43.512;5.220;2022-10-16T17:01:21;5.75;;;2.22;;
65706;SDS011;52423;43.512;5.220;2022-10-16T17:03:48;2.80;;;2.20;;